OIFS  Shahrekord Airport

Add Bookmark

Shahrekord, Iran

Status IATA
Operational CQD
Latitude Longitude
32° 17' 49" N 50° 50' 31" E
32.297199 50.842201
Local (DST + 5) UTC (GMT + 4)
Sep 2, 2014 08:47 Sep 2, 2014 04:17
Sunrise-Sunset Local UTC
Begin Civil Twilight 06:16 01:46
Sunrise 06:41 02:11
Sunset 07:31 15:01
End Civil Twilight 07:56 15:26

Current Weather

METAR Observed VFR
OIFS 020400Z 00000KT CAVOK 14/M01 Q1024 Tue, Sep 2, 2014 @ 04:00 UTC
(17 Minutes ago)
Visual Flight Rules
Wind Visibility Clouds Conditions
Calm 10 km or more
  • Clear skies
  • No significant weather
Temperatures Readings Precipitation
Current Temp 14°C (57°F)
Dewpoint -1°C (30°F)
Humidity 36%
Altimeter 30.24"Hg
Sea Level Pressure 1024mb
Field Elevation 6817.59'
None Recorded

Additional weather within a 185.2km radius of OIFS

Map ICAO Location
OIFM 108km E (062°)
OIAI 151.5km W (258°)

24 Hour Weather History

Loading
-

24 Hour Weather Graphs

Loading
-

CheckWX.com is intended as a tool to help pilots better visualize weather data. It is not intended as a substitute for an official weather briefing obtained from a Flight Service Station. CheckWX.com does not meet the FAA requirements for an official pre-flight weather briefing. Therefore, it's important that pilots still call and obtain an official FSS pre-flight weather briefing.